createdAt,value
2022-09-04T00:00:34.851Z,100453.19
2022-09-04T00:03:22.761Z,100455.78
2022-09-04T00:05:53.039Z,100459.00
2022-09-04T00:08:44.314Z,100460.81
2022-09-04T00:11:25.929Z,100460.88
2022-09-04T00:13:58.187Z,100464.97
2022-09-04T00:16:30.332Z,100463.53
2022-09-04T00:19:07.473Z,100462.00
2022-09-04T00:21:39.893Z,100460.97
2022-09-04T00:24:11.777Z,100467.41
2022-09-04T00:26:50.594Z,100463.84
2022-09-04T00:29:29.061Z,100456.97
2022-09-04T00:32:05.532Z,100463.19
2022-09-04T00:34:48.221Z,100463.03
2022-09-04T00:37:18.569Z,100456.66
2022-09-04T00:39:53.665Z,100466.22
2022-09-04T00:42:37.449Z,100472.75
2022-09-04T00:45:16.278Z,100461.06
2022-09-04T00:48:08.470Z,100473.56
2022-09-04T00:51:02.947Z,100481.06
2022-09-04T00:53:43.226Z,100481.00
2022-09-04T00:56:29.648Z,100477.97
2022-09-04T00:59:12.338Z,100478.13
2022-09-04T01:01:41.236Z,100479.69
2022-09-04T01:04:31.468Z,100481.25
2022-09-04T01:07:17.624Z,100480.16
2022-09-04T01:10:09.037Z,100492.44
2022-09-04T01:12:40.621Z,100493.13
2022-09-04T01:15:15.455Z,100489.53
2022-09-04T01:17:53.685Z,100496.66
2022-09-04T01:20:33.345Z,100488.06
2022-09-04T01:23:22.789Z,100490.69
2022-09-04T01:26:19.852Z,100490.84
2022-09-04T01:28:55.220Z,100486.06
2022-09-04T01:31:32.066Z,100492.44
2022-09-04T01:34:16.025Z,100482.84
2022-09-04T01:36:53.493Z,100479.38
2022-09-04T01:39:26.017Z,100475.31
2022-09-04T01:41:59.953Z,100480.53
2022-09-04T01:44:27.911Z,100486.00
2022-09-04T01:47:03.653Z,100484.72
2022-09-04T01:49:37.393Z,100487.16
2022-09-04T01:52:19.948Z,100483.63
2022-09-04T01:54:53.935Z,100486.28
2022-09-04T01:57:38.277Z,100491.94
2022-09-04T02:00:09.198Z,100487.94
2022-09-04T02:02:52.049Z,100497.91
2022-09-04T02:05:27.434Z,100500.47
2022-09-04T02:08:04.672Z,100503.13
2022-09-04T02:10:38.803Z,100499.03
2022-09-04T02:13:16.621Z,100499.59
2022-09-04T02:15:55.741Z,100488.41
2022-09-04T02:18:34.924Z,100489.00
2022-09-04T02:21:10.727Z,100482.72
2022-09-04T02:23:45.913Z,100480.03
2022-09-04T02:26:20.521Z,100486.19
2022-09-04T02:28:59.723Z,100492.16
2022-09-04T02:31:36.642Z,100482.34
2022-09-04T02:34:09.413Z,100479.41
2022-09-04T02:36:46.800Z,100486.09
2022-09-04T02:39:34.286Z,100479.22
2022-09-04T02:42:09.929Z,100493.16
2022-09-04T02:44:48.308Z,100483.50
2022-09-04T02:47:24.468Z,100488.13
2022-09-04T02:50:02.251Z,100494.75
2022-09-04T02:52:52.413Z,100489.34
2022-09-04T02:55:29.346Z,100492.38
2022-09-04T02:58:11.285Z,100491.41
2022-09-04T03:00:48.571Z,100487.31
2022-09-04T03:03:21.204Z,100487.59
2022-09-04T03:05:51.011Z,100483.38
2022-09-04T03:08:23.065Z,100490.00
2022-09-04T03:10:56.758Z,100484.91
2022-09-04T03:13:30.877Z,100480.38
2022-09-04T03:16:06.953Z,100476.56
2022-09-04T03:18:52.094Z,100473.97
2022-09-04T03:21:29.590Z,100476.16
2022-09-04T03:24:05.999Z,100471.59
2022-09-04T03:26:37.236Z,100468.44
2022-09-04T03:29:17.662Z,100480.09
2022-09-04T03:31:53.286Z,100485.66
2022-09-04T03:34:37.343Z,100484.03
2022-09-04T03:37:24.004Z,100484.72
2022-09-04T03:40:06.812Z,100486.31
2022-09-04T03:42:52.020Z,100490.50
2022-09-04T03:45:29.117Z,100494.69
2022-09-04T03:48:12.371Z,100493.63
2022-09-04T03:50:53.878Z,100497.03
2022-09-04T03:53:32.008Z,100499.38
2022-09-04T03:56:15.249Z,100506.13
2022-09-04T03:58:51.601Z,100496.16
2022-09-04T04:01:29.849Z,100503.56
2022-09-04T04:04:41.186Z,100506.25
2022-09-04T04:07:21.752Z,100501.72
2022-09-04T04:10:03.861Z,100503.91
2022-09-04T04:12:48.987Z,100508.59
2022-09-04T04:15:31.191Z,100504.16
2022-09-04T04:18:22.176Z,100506.06
2022-09-04T04:21:02.284Z,100512.13
2022-09-04T04:23:53.985Z,100515.19
2022-09-04T04:26:31.513Z,100516.38
2022-09-04T04:29:19.673Z,100520.97
2022-09-04T04:32:00.249Z,100517.34
2022-09-04T04:34:34.807Z,100520.41
2022-09-04T04:37:11.589Z,100515.84
2022-09-04T04:39:49.605Z,100522.44
2022-09-04T04:42:25.048Z,100524.97
2022-09-04T04:45:11.912Z,100538.75
2022-09-04T04:47:55.216Z,100533.69
2022-09-04T04:50:28.921Z,100536.56
2022-09-04T04:53:07.575Z,100545.28
2022-09-04T04:55:41.205Z,100552.38
2022-09-04T04:58:28.006Z,100551.47
2022-09-04T05:01:05.612Z,100557.16
2022-09-04T05:03:46.594Z,100569.06
2022-09-04T05:06:21.825Z,100569.88
2022-09-04T05:08:57.974Z,100570.81
2022-09-04T05:11:34.094Z,100577.00
2022-09-04T05:14:10.803Z,100575.63
2022-09-04T05:16:55.338Z,100565.72
2022-09-04T05:19:29.529Z,100572.06
2022-09-04T05:22:05.261Z,100568.88
2022-09-04T05:24:41.138Z,100566.28
2022-09-04T05:27:28.423Z,100568.13
2022-09-04T05:30:03.018Z,100566.34
2022-09-04T05:32:37.598Z,100567.59
2022-09-04T05:35:15.859Z,100566.56
2022-09-04T05:37:53.443Z,100573.41
2022-09-04T05:40:29.341Z,100575.44
2022-09-04T05:43:21.338Z,100575.22
2022-09-04T05:46:00.277Z,100562.19
2022-09-04T05:48:37.073Z,100570.84
2022-09-04T05:51:46.219Z,100572.81
2022-09-04T05:54:55.489Z,100575.78
2022-09-04T05:57:46.531Z,100581.72
2022-09-04T06:00:16.468Z,100583.09
2022-09-04T06:03:28.031Z,100589.78
2022-09-04T06:06:08.618Z,100595.16
2022-09-04T06:08:57.145Z,100592.91
2022-09-04T06:11:45.108Z,100601.44
2022-09-04T06:14:48.236Z,100589.34
2022-09-04T06:17:29.234Z,100592.03
2022-09-04T06:20:22.299Z,100594.44
2022-09-04T06:23:23.509Z,100596.31
2022-09-04T06:26:29.281Z,100591.19
2022-09-04T06:29:25.706Z,100591.91
2022-09-04T06:32:12.119Z,100591.84
2022-09-04T06:34:59.537Z,100600.72
2022-09-04T06:37:37.189Z,100600.78
2022-09-04T06:40:18.417Z,100604.25
2022-09-04T06:42:59.982Z,100606.84
2022-09-04T06:45:39.111Z,100613.72
2022-09-04T06:48:23.135Z,100616.28
2022-09-04T06:51:01.911Z,100629.53
2022-09-04T06:53:37.776Z,100633.25
2022-09-04T06:56:17.806Z,100640.44
2022-09-04T06:59:18.793Z,100647.16
2022-09-04T07:01:58.802Z,100641.06
2022-09-04T07:04:41.372Z,100640.91
2022-09-04T07:07:20.856Z,100644.34
2022-09-04T07:09:53.446Z,100646.31
2022-09-04T07:12:46.677Z,100644.09
2022-09-04T07:15:34.046Z,100644.28
2022-09-04T07:18:11.960Z,100639.97
2022-09-04T07:20:55.744Z,100645.19
2022-09-04T07:23:33.919Z,100646.69
2022-09-04T07:26:11.317Z,100639.47
2022-09-04T07:28:57.077Z,100647.63
2022-09-04T07:31:29.853Z,100650.31
2022-09-04T07:34:08.662Z,100646.75
2022-09-04T07:36:42.652Z,100642.38
2022-09-04T07:39:19.311Z,100647.81
2022-09-04T07:41:53.625Z,100652.06
2022-09-04T07:44:28.818Z,100661.63
2022-09-04T07:47:06.183Z,100655.19
2022-09-04T07:49:43.100Z,100655.31
2022-09-04T07:52:24.515Z,100650.59
2022-09-04T07:55:05.244Z,100661.34
2022-09-04T07:57:58.727Z,100667.91
2022-09-04T08:00:26.874Z,100666.63
2022-09-04T08:03:27.257Z,100671.34
2022-09-04T08:06:02.489Z,100668.03
2022-09-04T08:09:10.007Z,100669.75
2022-09-04T08:12:03.646Z,100674.31
2022-09-04T08:14:49.530Z,100675.44
2022-09-04T08:17:48.601Z,100688.59
2022-09-04T08:20:32.364Z,100689.84
2022-09-04T08:23:13.161Z,100698.47
2022-09-04T08:25:54.938Z,100702.66
2022-09-04T08:28:36.681Z,100705.34
2022-09-04T08:31:11.719Z,100711.44
2022-09-04T08:34:08.007Z,100714.47
2022-09-04T08:36:45.621Z,100714.22
2022-09-04T08:39:22.562Z,100712.25
2022-09-04T08:42:30.589Z,100719.09
2022-09-04T08:45:45.918Z,100715.88
2022-09-04T08:48:41.261Z,100713.94
2022-09-04T08:51:59.847Z,100723.69
2022-09-04T08:55:12.648Z,100726.56
2022-09-04T08:58:26.249Z,100724.25
2022-09-04T09:01:28.486Z,100727.38
2022-09-04T09:04:33.868Z,100724.31
2022-09-04T09:07:27.630Z,100729.03
2022-09-04T09:10:28.235Z,100723.59
2022-09-04T09:13:29.210Z,100718.47
2022-09-04T09:16:21.558Z,100721.50
2022-09-04T09:19:10.517Z,100724.25
2022-09-04T09:21:46.418Z,100727.41
2022-09-04T09:24:42.816Z,100735.56
2022-09-04T09:27:38.888Z,100737.63
2022-09-04T09:30:13.365Z,100732.22
2022-09-04T09:33:26.294Z,100733.00
2022-09-04T09:36:22.292Z,100736.78
2022-09-04T09:39:20.998Z,100740.19
2022-09-04T09:42:19.098Z,100742.47
2022-09-04T09:45:21.588Z,100747.22
2022-09-04T09:48:33.384Z,100747.44
2022-09-04T09:51:31.749Z,100743.56
2022-09-04T09:54:27.427Z,100730.13
2022-09-04T09:57:33.372Z,100729.03
2022-09-04T10:00:23.940Z,100727.72
2022-09-04T10:03:24.924Z,100732.84
2022-09-04T10:06:27.920Z,100735.00
2022-09-04T10:09:27.772Z,100731.28
2022-09-04T10:12:33.896Z,100736.47
2022-09-04T10:15:31.526Z,100733.59
2022-09-04T10:18:23.955Z,100729.94
2022-09-04T10:21:18.594Z,100734.34
2022-09-04T10:24:05.788Z,100733.94
2022-09-04T10:27:12.852Z,100726.78
2022-09-04T10:29:53.951Z,100734.59
2022-09-04T10:32:47.135Z,100731.53
2022-09-04T10:35:25.027Z,100739.09
2022-09-04T10:38:18.918Z,100731.00
2022-09-04T10:41:09.524Z,100734.25
2022-09-04T10:43:56.427Z,100732.06
2022-09-04T10:46:31.057Z,100724.75
2022-09-04T10:49:26.102Z,100713.38
2022-09-04T10:52:29.198Z,100733.25
2022-09-04T10:55:20.308Z,100719.44
2022-09-04T10:58:32.204Z,100723.97
2022-09-04T11:01:28.049Z,100726.69
2022-09-04T11:04:34.068Z,100723.13
2022-09-04T11:07:28.575Z,100720.13
2022-09-04T11:10:31.053Z,100716.16
2022-09-04T11:13:28.257Z,100719.84
2022-09-04T11:16:06.737Z,100717.88
2022-09-04T11:19:04.730Z,100713.47
2022-09-04T11:22:14.741Z,100718.38
2022-09-04T11:25:28.808Z,100705.38
2022-09-04T11:28:12.540Z,100709.84
2022-09-04T11:31:10.629Z,100708.56
2022-09-04T11:34:11.124Z,100707.63
2022-09-04T11:37:08.005Z,100707.91
2022-09-04T11:40:13.852Z,100711.09
2022-09-04T11:43:02.372Z,100701.31
2022-09-04T11:45:48.563Z,100705.41
2022-09-04T11:48:53.906Z,100703.25
2022-09-04T11:52:00.888Z,100704.34
2022-09-04T11:55:01.100Z,100706.44
2022-09-04T11:57:38.009Z,100700.81
2022-09-04T12:03:13.746Z,100699.69
2022-09-04T12:05:59.187Z,100699.22
2022-09-04T12:08:49.510Z,100692.75
2022-09-04T12:11:39.826Z,100693.38
2022-09-04T12:14:17.397Z,100686.09
2022-09-04T12:17:13.620Z,100684.19
2022-09-04T12:20:06.159Z,100681.19
2022-09-04T12:23:02.214Z,100684.31
2022-09-04T12:25:55.824Z,100683.28
2022-09-04T12:28:56.230Z,100688.25
2022-09-04T12:31:51.236Z,100680.31
2022-09-04T12:34:38.840Z,100680.66
2022-09-04T12:37:37.794Z,100692.75
2022-09-04T12:40:31.050Z,100693.84
2022-09-04T12:43:08.614Z,100694.00
2022-09-04T12:45:43.248Z,100697.28
2022-09-04T12:48:19.253Z,100702.09
2022-09-04T12:50:55.595Z,100699.69
2022-09-04T12:53:52.592Z,100706.84
2022-09-04T12:56:30.335Z,100704.13
2022-09-04T12:59:17.976Z,100706.25
2022-09-04T13:01:56.743Z,100702.97
2022-09-04T13:04:30.589Z,100699.22
2022-09-04T13:07:16.514Z,100699.78
2022-09-04T13:09:53.945Z,100699.75
2022-09-04T13:12:31.033Z,100707.66
2022-09-04T13:15:31.566Z,100697.75
2022-09-04T13:18:19.889Z,100699.94
2022-09-04T13:20:56.915Z,100707.22
2022-09-04T13:23:53.874Z,100711.66
2022-09-04T13:26:38.113Z,100713.06
2022-09-04T13:29:18.287Z,100716.81
2022-09-04T13:32:07.898Z,100723.66
2022-09-04T13:34:50.774Z,100718.75
2022-09-04T13:37:26.856Z,100713.91
2022-09-04T13:40:14.744Z,100718.00
2022-09-04T13:43:30.593Z,100716.31
2022-09-04T13:46:03.192Z,100725.03
2022-09-04T13:48:36.945Z,100729.06
2022-09-04T13:51:13.744Z,100728.47
2022-09-04T13:53:59.363Z,100721.53
2022-09-04T13:56:34.273Z,100734.56
2022-09-04T13:59:06.441Z,100730.97
2022-09-04T14:01:37.394Z,100731.91
2022-09-04T14:04:09.494Z,100723.44
2022-09-04T14:06:37.675Z,100729.38
2022-09-04T14:09:06.887Z,100732.00
2022-09-04T14:12:07.142Z,100734.88
2022-09-04T14:15:07.901Z,100730.53
2022-09-04T14:17:45.078Z,100725.69
2022-09-04T14:20:20.622Z,100726.41
2022-09-04T14:22:58.144Z,100728.63
2022-09-04T14:25:33.784Z,100735.75
2022-09-04T14:28:08.482Z,100736.28
2022-09-04T14:30:44.569Z,100730.56
2022-09-04T14:33:30.104Z,100734.78
2022-09-04T14:36:18.891Z,100738.94
2022-09-04T14:39:15.185Z,100742.63
2022-09-04T14:41:57.846Z,100746.19
2022-09-04T14:44:41.950Z,100739.97
2022-09-04T14:47:21.203Z,100737.72
2022-09-04T14:49:51.102Z,100743.13
2022-09-04T14:52:21.627Z,100741.94
2022-09-04T14:54:53.443Z,100750.50
2022-09-04T14:57:29.249Z,100741.53
2022-09-04T15:00:04.488Z,100744.28
2022-09-04T15:02:40.152Z,100750.41
2022-09-04T15:05:17.970Z,100745.75
2022-09-04T15:08:04.365Z,100758.41
2022-09-04T15:10:43.506Z,100755.09
2022-09-04T15:13:35.191Z,100753.28
2022-09-04T15:16:16.465Z,100748.16
2022-09-04T15:18:55.127Z,100757.34
2022-09-04T15:21:30.116Z,100756.44
2022-09-04T15:24:09.493Z,100754.06
2022-09-04T15:26:46.244Z,100748.13
2022-09-04T15:29:18.864Z,100743.72
2022-09-04T15:31:46.667Z,100748.59
2022-09-04T15:34:22.633Z,100744.56
2022-09-04T15:36:50.977Z,100745.47
2022-09-04T15:39:29.494Z,100740.06
2022-09-04T15:41:57.111Z,100740.88
2022-09-04T15:44:30.301Z,100739.22
2022-09-04T15:47:04.348Z,100744.72
2022-09-04T15:49:47.125Z,100750.44
2022-09-04T15:52:26.309Z,100747.94
2022-09-04T15:55:00.035Z,100751.50
2022-09-04T15:57:33.858Z,100755.53
2022-09-04T16:00:08.251Z,100751.28
2022-09-04T16:02:45.098Z,100758.41
2022-09-04T16:05:23.556Z,100759.25
2022-09-04T16:07:59.307Z,100764.97
2022-09-04T16:10:42.571Z,100764.31
2022-09-04T16:13:33.885Z,100759.94
2022-09-04T16:16:08.887Z,100756.16
2022-09-04T16:18:47.831Z,100759.25
2022-09-04T16:21:31.498Z,100765.44
2022-09-04T16:24:08.079Z,100765.75
2022-09-04T16:26:37.148Z,100771.63
2022-09-04T16:29:08.574Z,100764.97
2022-09-04T16:31:36.354Z,100779.19
2022-09-04T16:34:19.246Z,100773.69
2022-09-04T16:36:53.629Z,100778.22
2022-09-04T16:39:27.244Z,100784.94
2022-09-04T16:42:09.177Z,100786.38
2022-09-04T16:44:40.222Z,100788.47
2022-09-04T16:47:14.502Z,100784.09
2022-09-04T16:49:49.545Z,100781.22
2022-09-04T16:52:34.031Z,100784.84
2022-09-04T16:55:06.654Z,100782.00
2022-09-04T16:57:41.571Z,100794.03
2022-09-04T17:00:11.096Z,100785.59
2022-09-04T17:02:45.339Z,100796.13
2022-09-04T17:05:21.052Z,100796.41
2022-09-04T17:07:59.357Z,100797.50
2022-09-04T17:10:36.528Z,100797.31
2022-09-04T17:13:10.221Z,100791.38
2022-09-04T17:15:53.493Z,100786.16
2022-09-04T17:18:24.187Z,100794.34
2022-09-04T17:25:37.203Z,100799.81
2022-09-04T17:28:57.523Z,100809.25
2022-09-04T17:29:15.420Z,100809.84
2022-09-04T17:29:48.964Z,100819.41
2022-09-04T17:33:55.355Z,100815.38
2022-09-04T17:40:43.087Z,100829.16
2022-09-04T17:40:48.982Z,100821.03
2022-09-04T17:41:38.337Z,100831.75
2022-09-04T17:44:14.751Z,100832.53
2022-09-04T17:46:48.899Z,100835.34
2022-09-04T17:49:19.112Z,100844.63
2022-09-04T17:51:57.727Z,100848.50
2022-09-04T17:54:28.903Z,100852.94
2022-09-04T17:57:02.552Z,100855.53
2022-09-04T17:59:36.838Z,100846.28
2022-09-04T18:02:13.412Z,100845.22
2022-09-04T18:04:45.694Z,100849.72
2022-09-04T18:07:58.895Z,100862.03
2022-09-04T18:10:21.326Z,100858.16
2022-09-04T18:13:01.469Z,100854.59
2022-09-04T18:15:34.981Z,100859.66
2022-09-04T18:18:12.689Z,100862.78
2022-09-04T18:20:45.440Z,100866.81
2022-09-04T18:23:51.349Z,100875.50
2022-09-04T18:26:40.182Z,100881.13
2022-09-04T18:31:48.265Z,100890.59
2022-09-04T18:37:07.327Z,100891.25
2022-09-04T18:37:22.456Z,100890.41
2022-09-04T18:38:17.883Z,100900.69
2022-09-04T18:43:46.775Z,100909.28
2022-09-04T18:50:30.329Z,100910.94
2022-09-04T18:50:37.435Z,100915.78
2022-09-04T18:50:53.387Z,100913.03
2022-09-04T18:52:15.969Z,100918.94
2022-09-04T18:54:49.295Z,100915.78
2022-09-04T18:57:27.152Z,100919.75
2022-09-04T19:00:08.939Z,100918.50
2022-09-04T19:02:53.012Z,100928.78
2022-09-04T19:05:24.124Z,100922.28
2022-09-04T19:07:56.637Z,100931.91
2022-09-04T19:10:27.072Z,100927.06
2022-09-04T19:12:59.949Z,100930.84
2022-09-04T19:15:50.755Z,100930.59
2022-09-04T19:18:32.896Z,100928.75
2022-09-04T19:21:29.772Z,100929.78
2022-09-04T19:24:09.959Z,100925.84
2022-09-04T19:26:44.707Z,100930.00
2022-09-04T19:29:19.899Z,100931.97
2022-09-04T19:31:54.368Z,100922.25
2022-09-04T19:34:32.629Z,100922.69
2022-09-04T19:37:44.772Z,100928.13
2022-09-04T19:46:00.973Z,100926.03
2022-09-04T19:46:14.472Z,100932.94
2022-09-04T19:46:25.675Z,100928.75
2022-09-04T19:50:12.952Z,100921.59
2022-09-04T19:53:31.498Z,100933.91
2022-09-04T19:54:59.906Z,100928.69
2022-09-04T19:57:44.339Z,100939.84
2022-09-04T20:00:42.737Z,100933.56
2022-09-04T20:03:30.287Z,100938.59
2022-09-04T20:06:07.651Z,100941.00
2022-09-04T20:08:55.009Z,100933.81
2022-09-04T20:11:35.313Z,100943.91
2022-09-04T20:14:21.702Z,100938.06
2022-09-04T20:17:01.962Z,100942.44
2022-09-04T20:19:39.471Z,100938.75
2022-09-04T20:22:23.596Z,100936.88
2022-09-04T20:25:09.464Z,100935.91
2022-09-04T20:27:42.444Z,100931.91
2022-09-04T20:30:12.967Z,100933.81
2022-09-04T20:32:46.783Z,100928.78
2022-09-04T20:35:33.155Z,100933.59
2022-09-04T20:38:06.499Z,100935.25
2022-09-04T20:40:45.247Z,100934.34
2022-09-04T20:43:28.433Z,100940.28
2022-09-04T20:48:09.040Z,100941.47
2022-09-04T20:52:50.062Z,100948.53
2022-09-04T20:52:56.431Z,100946.28
2022-09-04T20:55:00.112Z,100946.81
2022-09-04T21:00:48.172Z,100954.69
2022-09-04T21:03:14.505Z,100951.41
2022-09-04T21:03:36.661Z,100961.47
2022-09-04T21:06:17.856Z,100959.03
2022-09-04T21:08:55.083Z,100957.16
2022-09-04T21:11:40.732Z,100958.38
2022-09-04T21:14:20.692Z,100962.22
2022-09-04T21:17:38.442Z,100967.81
2022-09-04T21:20:32.663Z,100971.91
2022-09-04T21:23:18.858Z,100979.03
2022-09-04T21:25:55.920Z,100976.72
2022-09-04T21:29:06.132Z,100977.97
2022-09-04T21:32:00.556Z,100980.53
2022-09-04T21:34:52.407Z,100981.38
2022-09-04T21:37:28.478Z,100984.25
2022-09-04T21:40:51.236Z,100988.03
2022-09-04T21:43:41.026Z,100991.22
2022-09-04T21:46:54.905Z,101000.38
2022-09-04T21:49:48.392Z,100991.88
2022-09-04T21:52:55.937Z,100996.66
2022-09-04T22:00:00.691Z,100998.38
2022-09-04T22:02:30.949Z,101003.50
2022-09-04T22:02:37.438Z,100998.78
2022-09-04T22:04:44.301Z,100994.56
2022-09-04T22:10:15.529Z,100993.69
2022-09-04T22:13:30.993Z,100995.78
2022-09-04T22:13:48.023Z,100994.75
2022-09-04T22:16:41.965Z,101003.56
2022-09-04T22:19:41.095Z,101000.13
2022-09-04T22:22:26.362Z,101000.03
2022-09-04T22:25:06.974Z,101003.81
2022-09-04T22:28:08.043Z,100996.34
2022-09-04T22:30:56.112Z,101000.97
2022-09-04T22:34:15.872Z,101001.91
2022-09-04T22:37:11.432Z,101003.91
2022-09-04T22:40:10.569Z,101000.78
2022-09-04T22:42:50.629Z,101006.94
2022-09-04T22:45:59.276Z,101004.97
2022-09-04T22:49:13.064Z,101010.16
2022-09-04T22:52:09.850Z,101010.50
2022-09-04T22:55:00.098Z,101013.63
2022-09-04T22:57:45.568Z,101007.06
2022-09-04T23:00:17.198Z,101006.72
2022-09-04T23:03:09.763Z,101006.69
2022-09-04T23:07:27.979Z,101002.66
2022-09-04T23:13:47.121Z,101006.50
2022-09-04T23:13:56.669Z,100996.06
2022-09-04T23:15:59.759Z,101001.44
2022-09-04T23:23:30.580Z,101000.22
2022-09-04T23:26:36.244Z,100994.50
2022-09-04T23:26:53.965Z,100990.56
2022-09-04T23:28:02.053Z,101000.16
2022-09-04T23:31:04.515Z,100997.91
2022-09-04T23:34:08.153Z,101001.63
2022-09-04T23:37:07.299Z,101005.75
2022-09-04T23:40:19.178Z,100998.66
2022-09-04T23:43:32.943Z,100997.72
2022-09-04T23:46:57.067Z,101001.31
2022-09-04T23:50:00.066Z,101002.16
2022-09-04T23:52:56.100Z,101011.78
2022-09-04T23:55:52.808Z,100996.88
2022-09-04T23:58:54.751Z,101006.84
